createdAt,value
2023-03-26T00:01:21.343Z,9.00
2023-03-26T00:03:53.646Z,8.88
2023-03-26T00:06:23.400Z,8.77
2023-03-26T00:08:50.993Z,8.60
2023-03-26T00:11:19.720Z,7.65
2023-03-26T00:13:47.733Z,7.47
2023-03-26T00:16:17.564Z,7.88
2023-03-26T00:18:44.984Z,7.80
2023-03-26T00:21:17.202Z,8.63
2023-03-26T00:23:44.703Z,7.78
2023-03-26T00:26:11.925Z,8.82
2023-03-26T00:28:43.070Z,8.07
2023-03-26T00:31:12.912Z,8.55
2023-03-26T00:33:40.980Z,8.02
2023-03-26T00:36:17.515Z,8.48
2023-03-26T00:38:46.904Z,8.23
2023-03-26T00:41:18.093Z,8.48
2023-03-26T00:43:48.970Z,7.50
2023-03-26T00:46:17.622Z,7.80
2023-03-26T00:48:46.164Z,7.72
2023-03-26T00:51:15.604Z,7.97
2023-03-26T00:53:45.035Z,7.70
2023-03-26T00:56:12.127Z,7.32
2023-03-26T00:58:39.539Z,7.80
2023-03-26T01:01:09.715Z,7.47
2023-03-26T01:03:38.622Z,7.03
2023-03-26T01:06:09.549Z,7.90
2023-03-26T01:08:40.652Z,7.30
2023-03-26T01:11:15.945Z,6.72
2023-03-26T01:13:49.473Z,6.88
2023-03-26T01:16:26.933Z,7.18
2023-03-26T01:18:54.681Z,7.15
2023-03-26T01:21:28.743Z,7.20
2023-03-26T01:23:57.772Z,6.60
2023-03-26T01:26:27.285Z,7.22
2023-03-26T01:28:57.208Z,7.38
2023-03-26T01:31:49.122Z,7.75
2023-03-26T01:34:40.800Z,6.72
2023-03-26T01:37:58.701Z,6.75
2023-03-26T01:40:38.740Z,7.03
2023-03-26T01:43:14.071Z,7.60
2023-03-26T01:45:45.180Z,7.38
2023-03-26T01:48:12.697Z,7.10
2023-03-26T01:50:39.906Z,7.28
2023-03-26T01:53:08.997Z,6.80
2023-03-26T01:56:02.132Z,7.20
2023-03-26T01:59:03.564Z,6.70
2023-03-26T02:01:36.655Z,6.80
2023-03-26T02:06:44.938Z,7.00
2023-03-26T02:09:19.541Z,7.25
2023-03-26T02:11:48.137Z,7.28
2023-03-26T02:14:15.384Z,6.90
2023-03-26T02:16:46.954Z,7.03
2023-03-26T02:19:21.650Z,6.88
2023-03-26T02:21:51.463Z,7.43
2023-03-26T02:24:19.846Z,7.63
2023-03-26T02:26:46.717Z,7.13
2023-03-26T02:29:14.976Z,7.75
2023-03-26T02:31:41.829Z,7.75
2023-03-26T02:34:09.110Z,7.78
2023-03-26T02:36:36.183Z,8.00
2023-03-26T02:39:03.539Z,6.85
2023-03-26T02:41:30.820Z,7.45
2023-03-26T02:43:58.209Z,8.00
2023-03-26T02:46:25.478Z,7.93
2023-03-26T02:48:52.288Z,7.20
2023-03-26T02:51:19.722Z,6.72
2023-03-26T02:53:47.499Z,7.22
2023-03-26T02:56:14.759Z,7.20
2023-03-26T02:58:42.181Z,6.47
2023-03-26T03:01:09.153Z,6.65
2023-03-26T03:03:37.345Z,7.35
2023-03-26T03:06:04.978Z,7.10
2023-03-26T03:08:32.323Z,6.47
2023-03-26T03:11:01.456Z,6.82
2023-03-26T03:13:28.811Z,6.75
2023-03-26T03:15:56.359Z,6.68
2023-03-26T03:18:23.362Z,6.05
2023-03-26T03:20:50.636Z,6.50
2023-03-26T03:23:17.579Z,6.57
2023-03-26T03:25:44.439Z,7.00
2023-03-26T03:28:11.788Z,6.53
2023-03-26T03:30:39.086Z,6.88
2023-03-26T03:33:06.262Z,6.40
2023-03-26T03:35:33.793Z,6.50
2023-03-26T03:38:01.199Z,6.90
2023-03-26T03:40:28.444Z,5.88
2023-03-26T03:42:55.784Z,6.78
2023-03-26T03:45:23.005Z,6.95
2023-03-26T03:47:50.354Z,6.72
2023-03-26T03:50:17.368Z,6.35
2023-03-26T03:52:44.214Z,5.93
2023-03-26T03:55:11.425Z,7.00
2023-03-26T03:57:39.524Z,6.00
2023-03-26T04:00:11.798Z,5.18
2023-03-26T04:02:39.121Z,6.33
2023-03-26T04:05:06.508Z,5.82
2023-03-26T04:07:33.400Z,6.10
2023-03-26T04:10:03.033Z,5.70
2023-03-26T04:12:31.227Z,4.97
2023-03-26T04:14:59.109Z,5.13
2023-03-26T04:17:26.614Z,5.95
2023-03-26T04:19:55.321Z,5.97
2023-03-26T04:22:22.599Z,5.50
2023-03-26T04:24:50.198Z,5.28
2023-03-26T04:27:20.306Z,5.80
2023-03-26T04:29:49.907Z,5.47
2023-03-26T04:32:26.585Z,5.45
2023-03-26T04:34:53.866Z,5.43
2023-03-26T04:37:44.443Z,5.32
2023-03-26T04:40:18.389Z,5.07
2023-03-26T04:42:48.109Z,4.95
2023-03-26T04:45:17.872Z,4.97
2023-03-26T04:47:46.595Z,5.22
2023-03-26T04:50:14.156Z,5.78
2023-03-26T04:52:43.262Z,5.45
2023-03-26T04:55:29.810Z,5.70
2023-03-26T04:58:00.130Z,5.45
2023-03-26T05:00:27.714Z,6.07
2023-03-26T05:02:56.268Z,6.13
2023-03-26T05:05:24.076Z,6.35
2023-03-26T05:07:51.415Z,5.47
2023-03-26T05:10:20.565Z,5.95
2023-03-26T05:12:47.483Z,6.88
2023-03-26T05:15:15.909Z,5.40
2023-03-26T05:17:43.005Z,5.80
2023-03-26T05:20:22.783Z,6.32
2023-03-26T05:22:52.176Z,4.75
2023-03-26T05:25:19.449Z,6.10
2023-03-26T05:27:46.660Z,5.50
2023-03-26T05:30:19.543Z,5.78
2023-03-26T05:32:49.073Z,6.25
2023-03-26T05:35:20.038Z,5.93
2023-03-26T05:37:48.033Z,7.25
2023-03-26T05:40:17.282Z,7.22
2023-03-26T05:42:45.868Z,6.72
2023-03-26T05:45:14.731Z,6.57
2023-03-26T05:47:42.126Z,6.10
2023-03-26T05:50:09.764Z,6.10
2023-03-26T05:52:37.097Z,6.30
2023-03-26T05:55:04.098Z,5.43
2023-03-26T05:57:31.621Z,6.03
2023-03-26T05:59:58.918Z,6.07
2023-03-26T06:02:25.823Z,5.40
2023-03-26T06:04:52.783Z,6.22
2023-03-26T06:07:19.911Z,5.10
2023-03-26T06:09:47.013Z,6.00
2023-03-26T06:12:14.629Z,6.75
2023-03-26T06:14:44.974Z,5.88
2023-03-26T06:17:12.521Z,5.97
2023-03-26T06:19:39.739Z,5.50
2023-03-26T06:22:06.934Z,5.70
2023-03-26T06:24:34.918Z,5.70
2023-03-26T06:27:01.991Z,6.45
2023-03-26T06:29:28.950Z,4.75
2023-03-26T06:31:58.199Z,5.07
2023-03-26T06:34:30.882Z,5.55
2023-03-26T06:36:57.662Z,5.50
2023-03-26T06:39:24.857Z,4.72
2023-03-26T06:41:52.086Z,4.93
2023-03-26T06:44:18.910Z,4.72
2023-03-26T06:46:47.272Z,5.70
2023-03-26T06:49:14.158Z,5.10
2023-03-26T06:51:41.588Z,5.60
2023-03-26T06:54:08.808Z,4.78
2023-03-26T06:56:36.201Z,5.47
2023-03-26T06:59:03.433Z,5.63
2023-03-26T07:01:30.463Z,5.78
2023-03-26T07:03:57.395Z,5.60
2023-03-26T07:06:27.458Z,5.10
2023-03-26T07:08:55.619Z,5.38
2023-03-26T07:11:25.581Z,5.88
2023-03-26T07:13:52.630Z,5.63
2023-03-26T07:16:20.041Z,5.57
2023-03-26T07:18:47.506Z,4.80
2023-03-26T07:21:15.502Z,5.03
2023-03-26T07:23:42.633Z,4.50
2023-03-26T07:26:25.999Z,4.82
2023-03-26T07:29:30.353Z,4.32
2023-03-26T07:32:27.384Z,5.00
2023-03-26T07:35:02.292Z,4.57
2023-03-26T07:38:08.992Z,4.78
2023-03-26T07:40:56.114Z,4.50
2023-03-26T07:43:35.528Z,4.35
2023-03-26T07:46:02.650Z,4.03
2023-03-26T07:48:42.387Z,4.80
2023-03-26T07:51:10.477Z,5.28
2023-03-26T07:53:37.699Z,4.10
2023-03-26T07:56:23.512Z,4.38
2023-03-26T07:58:50.746Z,4.90
2023-03-26T08:01:29.525Z,4.22
2023-03-26T08:04:24.016Z,4.03
2023-03-26T08:07:03.560Z,3.72
2023-03-26T08:09:53.603Z,4.15
2023-03-26T08:12:44.011Z,4.22
2023-03-26T08:15:11.246Z,4.00
2023-03-26T08:17:54.333Z,4.03
2023-03-26T08:20:45.721Z,4.00
2023-03-26T08:23:35.714Z,4.50
2023-03-26T08:26:32.971Z,4.18
2023-03-26T08:29:24.744Z,4.43
2023-03-26T08:31:51.923Z,4.85
2023-03-26T08:34:18.802Z,4.65
2023-03-26T08:36:46.553Z,5.25
2023-03-26T08:39:14.303Z,4.40
2023-03-26T08:42:08.546Z,3.95
2023-03-26T08:44:35.969Z,3.20
2023-03-26T08:47:11.867Z,3.78
2023-03-26T08:49:56.708Z,3.50
2023-03-26T08:52:47.511Z,3.28
2023-03-26T08:55:14.703Z,3.42
2023-03-26T08:58:06.404Z,3.42
2023-03-26T09:01:19.536Z,3.88
2023-03-26T09:04:22.214Z,3.80
2023-03-26T09:07:10.055Z,3.30
2023-03-26T09:09:46.096Z,3.90
2023-03-26T09:12:39.535Z,3.40
2023-03-26T09:15:43.147Z,3.83
2023-03-26T09:18:21.313Z,3.58
2023-03-26T09:21:21.592Z,4.20
2023-03-26T09:24:09.683Z,4.20
2023-03-26T09:26:46.341Z,3.00
2023-03-26T09:29:43.891Z,3.30
2023-03-26T09:32:51.650Z,3.15
2023-03-26T09:35:43.180Z,3.50
2023-03-26T09:38:12.328Z,2.80
2023-03-26T09:40:53.472Z,2.72
2023-03-26T09:43:48.882Z,2.75
2023-03-26T09:46:24.317Z,3.28
2023-03-26T09:48:59.353Z,2.92
2023-03-26T09:51:51.745Z,3.70
2023-03-26T09:54:55.341Z,3.43
2023-03-26T09:57:39.977Z,3.80
2023-03-26T10:00:23.118Z,3.60
2023-03-26T10:02:58.336Z,4.07
2023-03-26T10:05:55.676Z,4.20
2023-03-26T10:08:34.666Z,4.18
2023-03-26T10:11:33.392Z,3.17
2023-03-26T10:14:12.170Z,3.00
2023-03-26T10:17:25.795Z,2.58
2023-03-26T10:20:09.456Z,1.92
2023-03-26T10:23:06.666Z,1.70
2023-03-26T10:25:33.838Z,1.70
2023-03-26T10:28:37.460Z,1.45
2023-03-26T10:31:15.968Z,1.42
2023-03-26T10:33:54.332Z,1.80
2023-03-26T10:36:29.485Z,1.80
2023-03-26T10:39:37.653Z,1.42
2023-03-26T10:42:17.485Z,1.10
2023-03-26T10:44:45.392Z,1.17
2023-03-26T10:47:30.626Z,1.17
2023-03-26T10:49:57.929Z,1.25
2023-03-26T10:52:52.900Z,0.93
2023-03-26T10:55:27.196Z,1.20
2023-03-26T10:58:03.072Z,0.73
2023-03-26T11:00:31.274Z,1.15
2023-03-26T11:03:10.181Z,0.90
2023-03-26T11:06:07.997Z,1.10
2023-03-26T11:09:04.147Z,0.90
2023-03-26T11:11:49.149Z,1.00
2023-03-26T11:14:27.997Z,1.20
2023-03-26T11:17:42.968Z,1.10
2023-03-26T11:20:22.947Z,1.08
2023-03-26T11:23:08.663Z,1.10
2023-03-26T11:25:48.043Z,1.30
2023-03-26T11:28:38.232Z,1.70
2023-03-26T11:31:25.251Z,1.40
2023-03-26T11:33:57.055Z,1.65
2023-03-26T11:36:29.842Z,1.23
2023-03-26T11:38:59.735Z,1.50
2023-03-26T11:41:30.852Z,1.58
2023-03-26T11:43:58.039Z,1.90
2023-03-26T11:46:26.872Z,1.25
2023-03-26T11:48:59.489Z,1.98
2023-03-26T11:51:35.545Z,2.13
2023-03-26T11:54:03.859Z,2.17
2023-03-26T11:57:05.888Z,2.05
2023-03-26T12:00:16.562Z,1.97
2023-03-26T12:02:45.805Z,1.85
2023-03-26T12:05:26.767Z,1.90
2023-03-26T12:07:59.267Z,1.92
2023-03-26T12:10:31.453Z,1.50
2023-03-26T12:13:15.085Z,1.43
2023-03-26T12:15:45.014Z,1.27
2023-03-26T12:18:26.175Z,1.40
2023-03-26T12:21:04.785Z,1.60
2023-03-26T12:23:42.505Z,1.73
2023-03-26T12:26:16.602Z,1.80
2023-03-26T12:28:49.397Z,1.98
2023-03-26T12:31:20.608Z,1.60
2023-03-26T12:34:15.154Z,1.40
2023-03-26T12:36:49.634Z,1.38
2023-03-26T12:40:08.955Z,1.40
2023-03-26T12:44:50.877Z,1.90
2023-03-26T12:45:28.699Z,1.90
2023-03-26T12:48:03.878Z,1.70
2023-03-26T12:50:38.172Z,2.00
2023-03-26T12:53:43.050Z,1.55
2023-03-26T12:56:43.308Z,2.05
2023-03-26T12:59:36.789Z,1.80
2023-03-26T13:02:29.644Z,1.80
2023-03-26T13:05:05.822Z,1.70
2023-03-26T13:07:50.858Z,1.58
2023-03-26T13:10:37.181Z,1.80
2023-03-26T13:13:23.560Z,1.85
2023-03-26T13:15:54.891Z,2.00
2023-03-26T13:18:50.811Z,1.67
2023-03-26T13:21:37.058Z,1.73
2023-03-26T13:24:18.982Z,2.20
2023-03-26T13:27:14.931Z,2.10
2023-03-26T13:30:00.327Z,2.00
2023-03-26T13:33:08.591Z,2.20
2023-03-26T13:35:47.747Z,2.03
2023-03-26T13:38:37.000Z,2.30
2023-03-26T13:41:12.234Z,1.80
2023-03-26T13:44:07.235Z,2.10
2023-03-26T13:46:49.244Z,1.77
2023-03-26T13:49:36.996Z,1.77
2023-03-26T13:52:20.705Z,1.95
2023-03-26T13:54:54.684Z,2.13
2023-03-26T13:57:40.252Z,2.50
2023-03-26T14:00:21.528Z,2.10
2023-03-26T14:02:57.854Z,2.42
2023-03-26T14:05:34.704Z,2.40
2023-03-26T14:08:21.890Z,2.40
2023-03-26T14:10:55.778Z,3.00
2023-03-26T14:13:39.311Z,2.42
2023-03-26T14:16:23.660Z,2.53
2023-03-26T14:19:06.182Z,3.50
2023-03-26T14:21:48.048Z,2.93
2023-03-26T14:24:52.121Z,2.30
2023-03-26T14:27:51.291Z,2.25
2023-03-26T14:30:18.540Z,2.17
2023-03-26T14:32:45.945Z,1.77
2023-03-26T14:35:13.200Z,1.90
2023-03-26T14:38:17.041Z,2.00
2023-03-26T14:41:06.376Z,2.15
2023-03-26T14:43:43.703Z,1.70
2023-03-26T14:46:10.962Z,1.95
2023-03-26T14:49:02.332Z,1.92
2023-03-26T14:51:29.518Z,2.38
2023-03-26T14:54:24.492Z,1.80
2023-03-26T14:57:07.982Z,2.08
2023-03-26T15:00:02.349Z,2.03
2023-03-26T15:03:08.084Z,1.48
2023-03-26T15:06:15.416Z,1.80
2023-03-26T15:09:13.929Z,1.75
2023-03-26T15:12:12.183Z,1.65
2023-03-26T15:14:49.132Z,1.52
2023-03-26T15:17:45.794Z,1.65
2023-03-26T15:20:34.095Z,1.75
2023-03-26T15:23:22.600Z,2.20
2023-03-26T15:26:14.393Z,1.77
2023-03-26T15:29:06.037Z,1.80
2023-03-26T15:32:00.200Z,1.77
2023-03-26T15:34:55.688Z,1.65
2023-03-26T15:37:22.932Z,1.65
2023-03-26T15:40:08.424Z,1.60
2023-03-26T15:43:01.772Z,1.80
2023-03-26T15:45:41.244Z,2.28
2023-03-26T15:48:11.778Z,1.90
2023-03-26T15:51:00.811Z,2.08
2023-03-26T15:53:45.165Z,1.92
2023-03-26T15:56:53.022Z,2.00
2023-03-26T15:59:20.354Z,2.22
2023-03-26T16:02:22.461Z,2.70
2023-03-26T16:05:03.172Z,2.10
2023-03-26T16:07:58.883Z,1.85
2023-03-26T16:10:29.238Z,2.25
2023-03-26T16:13:15.079Z,1.85
2023-03-26T16:15:43.150Z,2.78
2023-03-26T16:18:11.814Z,2.50
2023-03-26T16:21:31.685Z,2.90
2023-03-26T16:24:02.445Z,2.60
2023-03-26T16:26:44.720Z,3.00
2023-03-26T16:29:14.637Z,2.83
2023-03-26T16:32:05.978Z,2.58
2023-03-26T16:34:48.224Z,2.92
2023-03-26T16:37:36.560Z,3.30
2023-03-26T16:40:20.374Z,3.08
2023-03-26T16:43:05.917Z,3.22
2023-03-26T16:45:37.156Z,3.10
2023-03-26T16:48:26.408Z,4.10
2023-03-26T16:51:17.259Z,3.13
2023-03-26T16:54:20.051Z,3.65
2023-03-26T16:57:18.401Z,4.35
2023-03-26T16:59:46.437Z,4.32
2023-03-26T17:02:37.690Z,4.85
2023-03-26T17:05:07.836Z,4.25
2023-03-26T17:07:42.597Z,4.63
2023-03-26T17:10:09.836Z,4.15
2023-03-26T17:13:07.748Z,4.15
2023-03-26T17:15:56.013Z,4.07
2023-03-26T17:18:28.690Z,4.78
2023-03-26T17:21:17.132Z,5.35
2023-03-26T17:24:05.709Z,4.35
2023-03-26T17:26:57.104Z,5.32
2023-03-26T17:30:00.498Z,5.70
2023-03-26T17:32:54.414Z,5.28
2023-03-26T17:35:44.582Z,5.38
2023-03-26T17:38:17.212Z,6.28
2023-03-26T17:40:57.607Z,6.93
2023-03-26T17:43:44.703Z,8.93
2023-03-26T17:46:26.851Z,7.93
2023-03-26T17:49:11.698Z,7.57
2023-03-26T17:52:48.217Z,6.65
2023-03-26T17:55:22.189Z,6.60
2023-03-26T17:57:57.140Z,7.43
2023-03-26T18:00:30.294Z,8.27
2023-03-26T18:03:04.753Z,9.75
2023-03-26T18:05:34.362Z,9.90
2023-03-26T18:08:27.917Z,8.23
2023-03-26T18:11:00.727Z,9.10
2023-03-26T18:14:02.282Z,9.30
2023-03-26T18:16:47.526Z,9.20
2023-03-26T18:19:22.078Z,9.23
2023-03-26T18:21:52.156Z,7.25
2023-03-26T18:24:27.592Z,7.55
2023-03-26T18:26:58.615Z,6.97
2023-03-26T18:29:25.786Z,6.85
2023-03-26T18:32:03.634Z,7.32
2023-03-26T18:34:33.456Z,6.78
2023-03-26T18:37:22.633Z,7.60
2023-03-26T18:40:19.192Z,7.97
2023-03-26T18:42:50.006Z,9.70
2023-03-26T18:45:30.896Z,10.35
2023-03-26T18:48:05.515Z,10.35
2023-03-26T18:50:38.867Z,9.18
2023-03-26T18:53:09.064Z,8.82
2023-03-26T18:55:39.683Z,9.80
2023-03-26T18:58:32.830Z,8.98
2023-03-26T19:01:03.882Z,9.48
2023-03-26T19:03:44.210Z,9.20
2023-03-26T19:06:14.208Z,9.07
2023-03-26T19:08:45.070Z,9.00
2023-03-26T19:11:16.140Z,7.75
2023-03-26T19:13:43.498Z,8.95
2023-03-26T19:16:34.020Z,9.13
2023-03-26T19:19:05.277Z,9.43
2023-03-26T19:21:34.567Z,9.90
2023-03-26T19:24:03.759Z,9.95
2023-03-26T19:26:31.557Z,15.82
2023-03-26T19:28:58.714Z,9.63
2023-03-26T19:31:32.153Z,9.48
2023-03-26T19:34:13.982Z,8.98
2023-03-26T19:36:59.452Z,8.63
2023-03-26T19:39:37.497Z,9.02
2023-03-26T19:42:06.580Z,9.15
2023-03-26T19:44:34.173Z,9.95
2023-03-26T19:47:08.480Z,9.27
2023-03-26T19:50:13.411Z,9.15
2023-03-26T19:52:40.349Z,10.90
2023-03-26T19:55:10.403Z,10.43
2023-03-26T19:57:38.047Z,10.02
2023-03-26T20:00:13.754Z,10.05
2023-03-26T20:02:42.457Z,10.60
2023-03-26T20:05:29.232Z,10.32
2023-03-26T20:07:59.802Z,10.63
2023-03-26T20:10:27.960Z,9.98
2023-03-26T20:12:54.928Z,10.20
2023-03-26T20:15:28.583Z,9.23
2023-03-26T20:17:55.867Z,14.68
2023-03-26T20:20:27.672Z,36.42
2023-03-26T20:22:55.258Z,11.27
2023-03-26T20:25:28.714Z,10.50
2023-03-26T20:27:59.148Z,9.88
2023-03-26T20:33:12.115Z,10.75
2023-03-26T20:35:41.412Z,10.55
2023-03-26T20:38:09.819Z,10.40
2023-03-26T20:40:38.400Z,9.63
2023-03-26T20:43:11.534Z,10.07
2023-03-26T20:45:38.835Z,11.00
2023-03-26T20:48:05.937Z,11.23
2023-03-26T20:50:35.786Z,10.43
2023-03-26T20:53:03.269Z,11.73
2023-03-26T20:55:30.538Z,10.75
2023-03-26T20:57:57.646Z,11.32
2023-03-26T21:00:25.292Z,22.13
2023-03-26T21:02:56.947Z,13.38
2023-03-26T21:05:29.137Z,11.30
2023-03-26T21:07:56.498Z,12.05
2023-03-26T21:10:26.162Z,11.63
2023-03-26T21:13:10.690Z,11.70
2023-03-26T21:15:38.096Z,12.43
2023-03-26T21:18:05.478Z,11.45
2023-03-26T21:20:34.708Z,11.65
2023-03-26T21:23:04.038Z,11.65
2023-03-26T21:25:35.204Z,9.38
2023-03-26T21:28:07.529Z,11.13
2023-03-26T21:30:35.241Z,10.97
2023-03-26T21:33:05.245Z,10.32
2023-03-26T21:35:34.660Z,11.27
2023-03-26T21:38:04.557Z,10.43
2023-03-26T21:40:32.137Z,10.57
2023-03-26T21:42:59.184Z,11.10
2023-03-26T21:45:26.788Z,9.88
2023-03-26T21:47:54.151Z,10.50
2023-03-26T21:50:22.942Z,10.27
2023-03-26T21:52:51.358Z,9.35
2023-03-26T21:55:20.153Z,9.63
2023-03-26T21:58:14.472Z,9.48
2023-03-26T22:01:12.923Z,10.55
2023-03-26T22:04:08.989Z,12.00
2023-03-26T22:07:00.397Z,10.02
2023-03-26T22:12:02.110Z,10.45
2023-03-26T22:14:29.407Z,9.60
2023-03-26T22:16:56.567Z,10.23
2023-03-26T22:19:23.365Z,9.48
2023-03-26T22:21:51.617Z,10.02
2023-03-26T22:24:18.446Z,10.18
2023-03-26T22:26:45.448Z,9.27
2023-03-26T22:29:13.188Z,10.45
2023-03-26T22:31:41.357Z,9.85
2023-03-26T22:34:08.692Z,9.85
2023-03-26T22:36:36.332Z,10.48
2023-03-26T22:39:04.600Z,10.05
2023-03-26T22:41:31.874Z,9.52
2023-03-26T22:44:09.234Z,9.82
2023-03-26T22:46:40.376Z,9.50
2023-03-26T22:49:07.659Z,10.80
2023-03-26T22:51:34.544Z,10.20
2023-03-26T22:54:01.500Z,11.07
2023-03-26T22:56:28.731Z,10.90
2023-03-26T22:58:55.629Z,12.80
2023-03-26T23:01:24.192Z,13.68
2023-03-26T23:03:51.416Z,14.50
2023-03-26T23:06:18.372Z,15.20
2023-03-26T23:08:45.697Z,14.15
2023-03-26T23:11:18.392Z,14.50
2023-03-26T23:13:46.449Z,16.20
2023-03-26T23:16:14.341Z,14.45
2023-03-26T23:18:41.698Z,13.80
2023-03-26T23:21:18.445Z,13.82
2023-03-26T23:23:46.413Z,13.98
2023-03-26T23:26:14.553Z,14.07
2023-03-26T23:28:41.914Z,13.38
2023-03-26T23:31:12.894Z,13.00
2023-03-26T23:33:46.718Z,14.60
2023-03-26T23:36:17.790Z,13.13
2023-03-26T23:38:49.276Z,13.15
2023-03-26T23:41:21.932Z,11.85
2023-03-26T23:43:56.525Z,11.65
2023-03-26T23:46:25.767Z,11.43
2023-03-26T23:48:53.321Z,11.85
2023-03-26T23:51:21.105Z,11.70
2023-03-26T23:53:49.502Z,12.45
2023-03-26T23:56:17.028Z,11.68
2023-03-26T23:58:44.190Z,12.40
